Portada
METAR-TAF:

METAR-TAF

Aeroports :

Georgetown, Carolina del Sud, Estats Units d'Amèrica

latitud: 33-18-41N, longitud: 079-19-13W, altitud: 12 m

Observació

L'informe es va fer fa 10 minuts, a les 00:15 UTC
Vent 4 kt del Sud
Temperatura 27°C
Humitat 79%
Pressió 1016 hPa
Visibilitat: 16.1 km
Cel clar

METAR: KGGE 110015Z AUTO 18004KT 10SM CLR 27/23 A3001 RMK AO2

Hora: 20:25 (00:25 UTC)


TAF: manca

Observacions i pronòstics meteorològics de més de 4000 aeroports (METAR i TAF).

Les estacions disponibles són els punts grocs i vermells al mapa.

Posi el ratolí al punt desitjat per veure el nom de l'estació.

Feu clic per veure les observacions i els pronòstics meteorològics.

Per canviar el mapa: feu clic els botons verds amb una creu de color negre per apropar; al botó verd amb un guió per allunyar la imatge; o en les fletxes verdes per a mapes adjacents.


METAR-TAF: